Elmwood, North Carolina
Current Conditions -  °F | °C
As of 12:55 PM on Monday 24 Nov 2014 (Local Time) from KSVH Reporting Station
Scattered Clouds Scattered Clouds  
Wind Chill: 69°   Ceiling: Unl
Heat Index: 69°   Visibility: 10mi
Dew Point: 56°   Wind: 15mph
Humidity: 63%   Direction: 200°SSW
Pressure: 29.74"   Gusts: 30mph
Location:  35.8306°N, 80.9003°W
Report Text: KSVH 241755Z AUTO 20013G26KT 10SM SCT032 20/13 A2974 RMK AO2 T02030131 10203 20146
Loading
Personal Weather Stations






























Interactive Weather Map New forecast layout! Learn more

10-Day Weather Forecast

Advertisements
Track Severe Weather on mobile